HCHecxz

HCHecxz

Views:
662,962
Subscribers:
428
Videos:
1,257
Duration:
9:11:43:16
United States
United States

HCHecxz is an American YouTube channel which has 428 subscribers. He published roughly 1.26 thousand videos which altogether total at least 662.96 thousand views.

Created on ● Channel Link: https://www.youtube.com/channel/UCxTZZ0PQciNfvBq1TWGWkEA





All Videos by HCHecxz



PublishedVideo TitleDurationViewsCategoryGame
2026-04-16Rainbow Six: Siege (PS4) - [REDACTED] Event - 4/6/260:003Rainbow Six Siege
2026-04-15Dirty Mountain Dew Review0:003
2026-04-05Sonic Racing: CrossWorlds (PS5) - 3/30/260:007
2026-03-30Fatal Frame II: Crimson Butterfly REMAKE (PS5) - Part 1 - 3/22/260:001Fatal Frame II: Crimson Butterfly
2026-03-25Chicago Deep Dish™0:0019
2026-03-25Judging You from a Distance0:005
2026-03-22Resident Evil Requiem "2nd Run" (PS5) - Part 4 FINALE - 3/18/260:002
2026-03-22Resident Evil Requiem "2nd Run" (PS5) - Part 3 - 3/16/260:0012
2026-03-22Resident Evil Requiem "2nd Run" (PS5) - Part 2 - 3/14/260:004
2026-03-22Resident Evil Requiem "2nd Run" (PS5) - Part 1 - 3/11/260:005
2026-03-04Resident Evil Requiem (PS5) - Part 3 FINALE - 3/1/260:003
2026-03-03Resident Evil Requiem (PS5) - Part 2 - 2/28/260:003
2026-03-02Resident Evil Requiem (PS5) - Part 1 - 2/27/260:005
2026-02-25Revisitng Resident Evil 2 (PS1) - Claire B - 2/23/260:004Resident Evil 2
2026-02-21Revisitng Resident Evil 2 (PS1) - Leon A - 2/19/260:005Resident Evil 2
2026-02-07Chicago Dog™0:0013
2026-02-07(Return to) Death Stranding (PS4) - Part 18 - 2/5/260:002Death Stranding
2026-02-06(Return to) Death Stranding (PS4) - Part 17 - 2/4/260:002Death Stranding
2026-02-03Crow Country (PS5) - Part 3 FINALE - 2/1/260:001Crow Country
2026-01-29"Someone in the chat saying I'm looking like Sigma from Mega Man X" - Mega64 Room-B0:001,629Mega Man X
2026-01-25Crow Country (PS5) - Part 2 - 1/23/260:005
2026-01-25Crow Country (PS5) - Part 1 - 1/17/260:002
2026-01-18Mega Man X2 (SNES) | magFAST 2026 - Charity Event - 1/8/260:005Mega Man X2
2026-01-15Mega Man X2 (XBX) MAGFest 2026 Practice - 12/30/250:006Mega Man X2
2025-12-29Baked Pit-tato0:0017
2025-12-24Terminator 2D: No Fate (PS4) - 12/19/250:0031The Elder Scrolls Online
2025-12-17Mega Man Dual Override announced for 2027!0:001,499
2025-12-11Shoryu-Nooo!!! #megamanx2 #megaman0:00493Mega Man X2
2025-12-09Mega Man X2 (XBX) - 12/8/250:0012Mega Man X2
2025-12-08Metroid Prime 4: Beyond (NSW) - Part 1 - 12/7/250:0012Metroid Prime 4: Beyond
2025-12-03Its Bread!? #silenthill #silenthill30:00260Silent Hill 3
2025-12-02Silent Hill f (PS5) - Part 5 FINALE - 11/30/250:0014SILENT HILL f
2025-11-29Silent Hill f (PS5) - Part 4 - 11/26/250:0011SILENT HILL f
2025-11-24Silent Hill f (PS5) - Part 3 - 11/23/250:008SILENT HILL f
2025-11-18Me at the Tron Ares Immersive Experience | ZeroBase Shibuya0:001,563
2025-11-16Silent Hill f (PS5) - Part 2 - 11/14/250:008SILENT HILL f
2025-11-10Fortnite goes The Simpsons (XBX) - 11/9/250:006Fortnite
2025-10-01Silent Hill f (PS5) - Part 1 - 9/30/250:0010SILENT HILL f
2025-09-27Mega Man X (NSW) - 9/26/250:0028Mega Man X Legacy Collection
2025-09-08Metal Gear Solid △: Snake Eater (PS5) - Part 4 FINALE - 9/7/250:0019Metal Gear Solid
2025-09-07Metal Gear Solid △: Snake Eater (PS5) - Part 3 - 9/6/250:0031
2025-09-02Metal Gear Solid △: Snake Eater (PS5) - Part 2 - 9/1/250:0036Metal Gear Solid
2025-09-01Metal Gear Solid △: Snake Eater (PS5) - Part 1 - 8/29/250:0011
2025-08-29Dog Spector 20:00111
2025-08-22RoboCop: Rogue City - Unfinished Business (PS5) - Part 4 FINALE - 8/21/250:0012RoboCop: Rogue City
2025-08-21RoboCop: Rogue City - Unfinished Business (PS5) - Part 3 - 8/20/250:005RoboCop: Rogue City
2025-08-18Barrett & Roche ask you to donate that gil - magFAST @ MAGWest 20250:0057Final Fantasy VII Remake
2025-08-18RoboCop: Rogue City - Unfinished Business (PS5) - Part 2 - 8/17/250:006RoboCop: Rogue City
2025-08-15RoboCop: Rogue City - Unfinished Business (PS5) - Part 1 - 8/14/250:0015RoboCop: Rogue City
2025-07-23(Return to) Death Stranding (PS4) - Part 16 - 7/22/250:007Death Stranding
2025-07-22(Return to) Death Stranding (PS4) - Part 15 - 7/18/250:001Death Stranding
2025-07-19(Return to) Death Stranding (PS4) - Part 14 - 7/13/250:002Death Stranding
2025-07-09Dropping elbows on couches for #charity0:00292
2025-07-06(Return to) Death Stranding (PS4) - Part 13 - 7/5/250:0012Death Stranding
2025-07-04Attempted to go (Mtn Dew) Overdrive!0:0012
2025-07-01The Last Seconds of Resident Evil Re:Verse #residentevil0:00419Resident Evil Re:Verse
2025-06-30The final hours of Resident Evil Re:Verse - 6/29/250:0033Resident Evil Re:Verse
2025-06-26Final Fantasy VII: Remake - INTERmission (PS5) - Part 3 FINALE - 12/23/240:005Final Fantasy VII Remake
2025-06-26Squirrel with a Gun (PS5) - Part 2 - 12/9/240:002
2025-06-26Squirrel with a Gun (PS5) - Part 1 - 12/4/240:001
2025-06-26Super Mario RPG (NSW) - Part 6 FINALE - 11/24/240:000Super Mario RPG
2025-06-26Super Mario RPG (NSW) - Part 5 - 11/19/240:002Super Mario RPG
2025-06-26Super Mario RPG (NSW) - Part 4 - 11/18/240:000Super Mario RPG
2025-06-25Super Mario RPG (NSW) - Part 3 - 11/17/240:001Super Mario RPG
2025-06-25Sonic X Shadow Generations (PS5) - Part 3 - 6/9/250:002Sonic X Shadow Generations
2025-06-25Super Mario RPG (NSW) - Part 2 - 11/13/240:001Super Mario RPG
2025-06-25Super Mario RPG (NSW) - Part 1 - 11/11/240:001Super Mario RPG
2025-06-24Silent Hill 2 (PS5) - Part 7 FINALE - 11/8/240:006
2025-06-24Silent Hill 2 (PS5) - Part 2 - 10/13/240:000
2025-06-23Silent Hill 2 (PS5) - Part 1 - 10/9/240:001
2025-06-23Resident Evil 4: Separate Ways (PS5) - Part 4 FINALE - 10/8/240:000Resident Evil 4
2025-06-23Resident Evil 4: Separate Ways (PS5) - Part 3 - 10/7/240:000Resident Evil 4
2025-06-23Resident Evil 4: Separate Ways (PS5) - Part 2 - 10/3/240:000Resident Evil 4
2025-06-23Resident Evil 4: Separate Ways (PS5) - Part 1 - 10/2/240:000Resident Evil 4
2025-06-23Metal Gear Solid V (PS4) - The Road to 100% - 9/29/240:001Metal Gear Solid V: The Phantom Pain
2025-06-23Metal Gear Solid V (PS4) - The Road to 100% - 9/27/240:000Metal Gear Solid V: The Phantom Pain
2025-06-23Astro Bot (PS5) - Part 6 FINALE - 9/18/240:000The Elder Scrolls Online
2025-06-23Astro Bot (PS5) - Part 5 - 9/16/240:002
2025-06-22Astro Bot (PS5) - Part 4 - 9/12/240:003
2025-06-22Astro Bot (PS5) - Part 3 - 9/11/240:006The Elder Scrolls Online
2025-06-22Astro Bot (PS5) - Part 2 - 9/9/240:0021The Elder Scrolls Online
2025-06-22Astro Bot (PS5) - Part 1 - 9/7/240:0016The Elder Scrolls Online
2025-06-22Metal Gear Solid V (PS4) - The Road to 100% - 9/1/240:006Metal Gear Solid V: The Phantom Pain
2025-06-21System Shock (PS5) - Part 2 - 7/9/240:003System Shock
2025-06-21Dead Rising (PS4) - Part 1 - 7/14/240:001Dead Rising
2025-06-21Dead Rising (PS4) - Part 2 - 8/11/240:003Dead Rising
2025-06-21Trepang2 (PS5) - 8/30/240:005Trepang2
2025-06-21Dead Rising (PS4) - Part 4 - 8/18/240:004Dead Rising
2025-06-21Dead Rising (PS4) - Part 5 FINALE - 8/22/240:003Dead Rising
2025-06-21Stellar Blade (PS5) - Part 13 - 7/2/240:003Stellar Blade
2025-06-21System Shock (PS5) - Part 1 - 7/8/240:006System Shock
2025-06-21Dead Rising (PS4) - Part 3 - 8/17/240:001Dead Rising
2025-06-21Stellar Blade (PS5) - Part 14 FINALE - 7/5/240:007Stellar Blade
2025-06-20Stellar Blade (PS5) - Part 9 - 6/15/240:001Stellar Blade
2025-06-20Stellar Blade (PS5) - Part 10 - 6/21/240:003Stellar Blade
2025-06-20Stellar Blade (PS5) - Part 11 - 6/27/240:002Stellar Blade
2025-06-20Stellar Blade (PS5) - Part 12 - 6/29/240:006Stellar Blade
2025-06-20Stellar Blade (PS5) - Part 8 - 6/11/240:002Stellar Blade
2025-06-19Alone in the Dark (PS5) - Part 3 FINALE - 6/5/240:000
2025-06-18Helldivers 2 (PS5) - 5/22/240:001Helldivers 2